Time;durP1;ratioP1;P1;durP2;ratioP2;P2;SDS_P1;SDS_P2;PMS_P1;PMS_P2;Temp;Humidity;BMP_temperature;BMP_pressure;BME280_temperature;BME280_humidity;BME280_pressure;Samples;Min_cycle;Max_cycle;Signal;HPM_P1;HPM_P2
2022/08/27 00:01:42;;;;;;;3.67;3.15;;;13.30;99.90;;;;;;4975969;28;20034;-75
2022/08/27 00:04:07;;;;;;;3.15;2.80;;;13.20;99.90;;;;;;4978787;28;20042;-74
2022/08/27 00:06:34;;;;;;;3.20;2.90;;;13.20;99.90;;;;;;4985545;28;20052;-74
2022/08/27 00:09:01;;;;;;;5.20;3.30;;;13.20;99.90;;;;;;4991776;28;20406;-74
2022/08/27 00:11:27;;;;;;;3.17;2.88;;;13.10;99.90;;;;;;4980249;28;20434;-74
2022/08/27 00:13:55;;;;;;;4.75;2.80;;;13.10;99.90;;;;;;4981449;28;20096;-74
2022/08/27 00:16:21;;;;;;;3.58;3.25;;;13.00;99.90;;;;;;4989062;28;20038;-75
2022/08/27 00:18:47;;;;;;;4.22;3.47;;;13.00;99.90;;;;;;4993438;28;20045;-75
2022/08/27 00:21:13;;;;;;;4.38;3.58;;;12.90;99.90;;;;;;4974161;28;20077;-76
2022/08/27 00:23:39;;;;;;;4.18;3.22;;;12.90;99.90;;;;;;4980591;28;20073;-76
2022/08/27 00:26:06;;;;;;;4.57;3.70;;;12.90;99.90;;;;;;4990517;28;20113;-76
2022/08/27 00:28:33;;;;;;;4.45;3.50;;;12.80;99.90;;;;;;4974050;28;20049;-76
2022/08/27 00:30:59;;;;;;;4.30;3.90;;;12.80;99.90;;;;;;4989526;28;20037;-76
2022/08/27 00:33:25;;;;;;;6.07;3.75;;;12.80;99.90;;;;;;4971302;28;20502;-76
2022/08/27 00:35:52;;;;;;;4.45;3.67;;;12.70;99.90;;;;;;4977034;28;20439;-76
2022/08/27 00:38:20;;;;;;;4.80;3.95;;;12.70;99.90;;;;;;4977486;28;20188;-77
2022/08/27 00:40:46;;;;;;;4.20;3.50;;;12.60;99.90;;;;;;4984257;28;20041;-77
2022/08/27 00:43:12;;;;;;;4.43;3.67;;;12.60;99.90;;;;;;4991059;28;20529;-76
2022/08/27 00:45:43;;;;;;;4.63;3.33;;;12.60;99.90;;;;;;4980174;28;20442;-76
2022/08/27 00:48:14;;;;;;;4.63;3.60;;;12.50;99.90;;;;;;4981220;28;20038;-77
2022/08/27 00:50:46;;;;;;;3.92;3.50;;;12.50;99.90;;;;;;4959712;28;20031;-76
2022/08/27 00:53:15;;;;;;;5.10;3.77;;;12.40;99.90;;;;;;4981755;28;20422;-77
2022/08/27 00:55:47;;;;;;;4.22;3.83;;;12.40;99.90;;;;;;4979450;28;20034;-77
2022/08/27 00:58:35;;;;;;;6.38;3.75;;;12.40;99.90;;;;;;4988210;28;20038;-76
2022/08/27 01:01:05;;;;;;;4.75;3.78;;;12.30;99.90;;;;;;4983824;28;20081;-76
2022/08/27 01:03:30;;;;;;;4.15;3.75;;;12.30;99.90;;;;;;4975562;28;20406;-76
2022/08/27 01:06:00;;;;;;;4.43;3.70;;;12.30;99.90;;;;;;4988514;28;20125;-76
2022/08/27 01:08:30;;;;;;;4.50;4.00;;;12.30;99.90;;;;;;4996188;28;20120;-77
2022/08/27 01:10:58;;;;;;;4.05;3.65;;;12.20;99.90;;;;;;4990724;28;20044;-76
2022/08/27 01:13:25;;;;;;;4.25;3.85;;;12.20;99.90;;;;;;4966669;28;20097;-77
2022/08/27 01:15:52;;;;;;;4.18;3.58;;;12.20;99.90;;;;;;4983987;28;20072;-77
2022/08/27 01:18:18;;;;;;;4.45;4.05;;;12.10;99.90;;;;;;4984344;28;20093;-77
2022/08/27 01:21:04;;;;;;;5.18;4.20;;;12.10;99.90;;;;;;4994750;28;20088;-77
2022/08/27 01:23:49;;;;;;;5.85;4.40;;;12.10;99.90;;;;;;4977864;28;20046;-76
2022/08/27 01:26:15;;;;;;;4.40;4.00;;;12.10;99.90;;;;;;4981936;28;20065;-77
2022/08/27 01:28:42;;;;;;;4.65;3.92;;;12.00;99.90;;;;;;4979228;28;20126;-76
2022/08/27 01:31:09;;;;;;;5.82;4.57;;;12.00;99.90;;;;;;4987482;28;20046;-77
2022/08/27 01:33:35;;;;;;;4.90;4.40;;;12.00;99.90;;;;;;4986105;28;20034;-76
2022/08/27 01:36:02;;;;;;;4.88;4.32;;;12.00;99.90;;;;;;4976156;28;20038;-76
2022/08/27 01:38:28;;;;;;;5.55;4.47;;;11.90;99.90;;;;;;4975611;28;20038;-76
2022/08/27 01:40:54;;;;;;;4.93;4.43;;;11.90;99.90;;;;;;4981522;28;20430;-77
2022/08/27 01:43:20;;;;;;;4.80;4.38;;;11.90;99.90;;;;;;5003760;28;20493;-77
2022/08/27 01:45:49;;;;;;;6.38;4.93;;;11.90;99.90;;;;;;4981184;28;20093;-76
2022/08/27 01:48:18;;;;;;;4.45;4.05;;;11.90;99.90;;;;;;4984752;28;20038;-76
2022/08/27 01:50:44;;;;;;;4.82;4.28;;;11.80;99.90;;;;;;4987434;28;20049;-76
2022/08/27 01:53:30;;;;;;;6.13;5.18;;;11.80;99.90;;;;;;4976147;28;20466;-76
2022/08/27 01:55:56;;;;;;;5.78;4.88;;;11.80;99.90;;;;;;4979335;28;20046;-76
2022/08/27 01:58:25;;;;;;;4.80;4.38;;;11.80;99.90;;;;;;4991623;28;20045;-77
2022/08/27 02:00:54;;;;;;;5.18;4.68;;;11.80;99.90;;;;;;4977381;28;20071;-77
2022/08/27 02:03:19;;;;;;;6.10;5.50;;;11.70;99.90;;;;;;4971137;28;20491;-76
2022/08/27 02:05:47;;;;;;;5.18;4.68;;;11.60;99.90;;;;;;4985146;28;20042;-76
2022/08/27 02:08:18;;;;;;;5.57;5.00;;;11.60;99.90;;;;;;5073293;23;20050;-77
2022/08/27 02:11:08;;;;;;;5.72;4.65;;;11.60;99.90;;;;;;4940538;28;20076;-77
2022/08/27 02:13:46;;;;;;;5.25;4.50;;;11.60;99.90;;;;;;4938718;28;20125;-77
2022/08/27 02:16:40;;;;;;;5.90;5.28;;;11.60;99.90;;;;;;4952541;28;20406;-77
2022/08/27 02:19:09;;;;;;;5.68;5.07;;;11.60;99.90;;;;;;4961347;28;20497;-78
2022/08/27 02:21:59;;;;;;;5.43;4.72;;;11.50;99.90;;;;;;4966939;28;20078;-77
2022/08/27 02:24:40;;;;;;;6.10;5.45;;;11.50;99.90;;;;;;4974270;28;20050;-78
2022/08/27 02:27:17;;;;;;;6.15;5.55;;;11.50;99.90;;;;;;4977950;28;20038;-77
2022/08/27 02:29:59;;;;;;;6.10;5.28;;;11.50;99.90;;;;;;4958941;28;20046;-77
2022/08/27 02:32:31;;;;;;;7.57;5.40;;;11.50;99.90;;;;;;4966574;28;20036;-77
2022/08/27 02:35:23;;;;;;;;;;;;;;;;;;;;;
2022/08/27 02:37:52;;;;;;;6.00;5.40;;;11.40;99.90;;;;;;4958047;28;20046;-77
2022/08/27 02:40:43;;;;;;;5.60;5.10;;;11.40;99.90;;;;;;4964726;28;20047;-77
2022/08/27 02:43:25;;;;;;;6.80;5.00;;;11.30;99.90;;;;;;4945956;28;20048;-79
2022/08/27 02:46:21;;;;;;;6.03;5.43;;;11.30;99.90;;;;;;4955406;28;20033;-77
2022/08/27 02:48:50;;;;;;;6.00;5.40;;;11.30;99.90;;;;;;4982724;28;20061;-77
2022/08/27 02:51:30;;;;;;;6.85;5.20;;;11.20;99.90;;;;;;4969692;28;20050;-77
2022/08/27 02:54:08;;;;;;;6.55;5.95;;;11.20;99.90;;;;;;4959098;28;20045;-77
2022/08/27 02:56:56;;;;;;;6.53;5.22;;;11.20;99.90;;;;;;4959468;28;20046;-77
2022/08/27 02:59:30;;;;;;;5.70;5.10;;;11.20;99.90;;;;;;4967816;28;20472;-77
2022/08/27 03:02:02;;;;;;;5.30;4.78;;;11.20;99.90;;;;;;4941501;28;20046;-79
2022/08/27 03:04:35;;;;;;;6.00;5.40;;;11.20;99.90;;;;;;4963335;28;20406;-77
2022/08/27 03:07:13;;;;;;;6.95;5.07;;;11.10;99.90;;;;;;4953160;28;20053;-77
2022/08/27 03:09:48;;;;;;;5.47;4.97;;;11.10;99.90;;;;;;4958320;28;20038;-77
2022/08/27 03:15:14;;;;;;;6.03;5.43;;;11.10;99.90;;;;;;4978174;28;20036;-77
2022/08/27 03:18:20;;;;;;;7.90;5.57;;;11.10;99.90;;;;;;4973655;28;20505;-77
2022/08/27 03:21:04;;;;;;;6.07;5.47;;;11.10;99.90;;;;;;4964713;28;20050;-77
2022/08/27 03:23:46;;;;;;;6.28;5.65;;;11.00;99.90;;;;;;4975185;28;20111;-77
2022/08/27 03:26:40;;;;;;;6.72;6.03;;;11.00;99.90;;;;;;4966421;28;20088;-77
2022/08/27 03:29:42;;;;;;;6.05;5.55;;;11.00;99.90;;;;;;4977432;28;20054;-79
2022/08/27 03:32:12;;;;;;;5.93;5.32;;;11.00;99.90;;;;;;4973283;28;20052;-77
2022/08/27 03:34:39;;;;;;;6.38;5.40;;;10.90;99.90;;;;;;4963067;28;20060;-77
2022/08/27 03:37:31;;;;;;;6.22;5.63;;;10.90;99.90;;;;;;4970632;28;20042;-77
2022/08/27 03:40:06;;;;;;;6.60;5.90;;;10.90;99.90;;;;;;4953323;28;20541;-77
2022/08/27 03:42:50;;;;;;;6.65;5.95;;;10.90;99.90;;;;;;4957877;28;20098;-78
2022/08/27 03:45:23;;;;;;;6.22;5.57;;;10.90;99.90;;;;;;4959072;28;20046;-77
2022/08/27 03:48:11;;;;;;;7.13;5.45;;;10.90;99.90;;;;;;4973895;28;20050;-78
2022/08/27 03:50:52;;;;;;;6.35;5.70;;;10.90;99.90;;;;;;4962592;28;20046;-77
2022/08/27 03:53:41;;;;;;;6.88;6.10;;;10.80;99.90;;;;;;4962725;28;20053;-77
2022/08/27 03:56:28;;;;;;;6.82;5.90;;;10.80;99.90;;;;;;4962526;28;20037;-77
2022/08/27 03:59:26;;;;;;;5.50;5.00;;;10.80;99.90;;;;;;4952241;28;20113;-77
2022/08/27 04:02:11;;;;;;;5.40;4.90;;;10.70;99.90;;;;;;4961662;28;20050;-77
2022/08/27 04:04:46;;;;;;;6.05;5.45;;;10.60;99.90;;;;;;4962151;28;20037;-77
2022/08/27 04:07:23;;;;;;;6.88;5.72;;;10.70;99.90;;;;;;4956910;28;20038;-78
2022/08/27 04:10:13;;;;;;;;;;;;;;;;;;;;;
2022/08/27 04:13:13;;;;;;;6.97;6.35;;;10.70;99.90;;;;;;4981057;28;20030;-77
2022/08/27 04:16:10;;;;;;;6.50;5.90;;;10.70;99.90;;;;;;4969150;28;20035;-77
2022/08/27 04:18:43;;;;;;;6.47;5.85;;;10.60;99.90;;;;;;4980736;28;20041;-77
2022/08/27 04:21:28;;;;;;;6.47;5.85;;;10.50;99.90;;;;;;4970166;28;20047;-77
2022/08/27 04:24:30;;;;;;;;;;;;;;;;;;;;;
2022/08/27 04:27:16;;;;;;;;;;;;;;;;;;;;;
2022/08/27 04:29:43;;;;;;;5.88;5.38;;;10.50;99.90;;;;;;4975092;28;20125;-77
2022/08/27 04:32:37;;;;;;;7.38;6.68;;;10.50;99.90;;;;;;4974414;28;20532;-77
2022/08/27 04:35:14;;;;;;;7.30;6.32;;;10.50;99.90;;;;;;4969669;28;20519;-78
2022/08/27 04:38:11;;;;;;;7.15;6.45;;;10.50;99.90;;;;;;4935184;29;20052;-79
2022/08/27 04:41:23;;;;;;;7.18;6.47;;;10.50;99.90;;;;;;4932111;28;20047;-79
2022/08/27 04:44:01;;;;;;;6.97;6.25;;;10.60;99.90;;;;;;4970773;28;20038;-77
2022/08/27 04:46:40;;;;;;;8.43;7.15;;;10.60;99.90;;;;;;4966660;28;20129;-77
2022/08/27 04:49:35;;;;;;;7.38;6.68;;;10.70;99.90;;;;;;4961680;28;20129;-77
2022/08/27 04:52:39;;;;;;;7.85;7.05;;;10.70;99.90;;;;;;4945201;28;20029;-77
2022/08/27 04:55:36;;;;;;;7.38;6.68;;;10.70;99.90;;;;;;4929741;28;20049;-77
2022/08/27 04:58:43;;;;;;;9.27;7.70;;;10.80;99.90;;;;;;4955122;28;20038;-77
2022/08/27 05:01:21;;;;;;;;;;;10.80;99.90;;;;;;4956215;28;20042;-77
2022/08/27 05:04:05;;;;;;;8.10;7.32;;;10.90;99.90;;;;;;4961350;28;19917;-77
2022/08/27 05:07:02;;;;;;;;;;;10.90;99.90;;;;;;4980489;28;20085;-78
2022/08/27 05:09:53;;;;;;;7.57;6.88;;;11.00;99.90;;;;;;4979108;28;20408;-78
2022/08/27 05:12:48;;;;;;;8.50;7.60;;;11.00;99.90;;;;;;4962884;28;20038;-77
2022/08/27 05:15:46;;;;;;;9.32;8.27;;;11.10;99.90;;;;;;4968114;28;20042;-77
2022/08/27 05:18:21;;;;;;;;;;;11.20;99.90;;;;;;4967036;28;20520;-77
2022/08/27 05:20:54;;;;;;;9.60;8.65;;;11.30;99.90;;;;;;4983212;28;20286;-77
2022/08/27 05:23:31;;;;;;;9.40;8.50;;;11.40;99.90;;;;;;4960760;28;20042;-77
2022/08/27 05:26:21;;;;;;;9.52;7.93;;;11.50;99.90;;;;;;4958673;28;20050;-76
2022/08/27 05:29:27;;;;;;;;;;;;;;;;;;;;;
2022/08/27 05:33:16;;;;;;;;;;;;;;;;;;;;;
2022/08/27 06:06:07;;;;;;;6.93;6.22;;;12.40;99.90;;;;;;4957873;28;20098;-80
2022/08/27 06:09:10;;;;;;;6.63;6.03;;;12.40;99.90;;;;;;4915861;29;20118;-77
2022/08/27 06:12:25;;;;;;;6.72;5.85;;;12.40;99.90;;;;;;4928903;29;20116;-76
2022/08/27 06:15:38;;;;;;;7.38;6.20;;;12.50;99.90;;;;;;4895138;29;20060;-76
2022/08/27 06:22:36;;;;;;;6.82;6.13;;;12.60;99.90;;;;;;4913966;29;20103;-77
2022/08/27 06:29:30;;;;;;;6.80;6.10;;;12.80;99.90;;;;;;4860186;29;20049;-78
2022/08/27 06:32:39;;;;;;;6.35;5.53;;;12.90;99.90;;;;;;4844891;29;20080;-77
2022/08/27 06:35:48;;;;;;;7.05;6.30;;;13.00;99.90;;;;;;4904695;29;20091;-77
2022/08/27 06:38:33;;;;;;;;;;;;;;;;;;;;;
2022/08/27 06:41:55;;;;;;;;;;;;;;;;;;;;;
2022/08/27 06:44:35;;;;;;;6.20;5.60;;;13.40;99.90;;;;;;4942443;29;20091;-78
2022/08/27 06:47:04;;;;;;;5.90;5.07;;;13.60;99.90;;;;;;4919742;29;20035;-77
2022/08/27 06:49:37;;;;;;;5.30;4.80;;;13.70;99.90;;;;;;4923186;29;20040;-77
2022/08/27 06:52:23;;;;;;;5.38;4.78;;;13.80;99.90;;;;;;4913904;29;20127;-78
2022/08/27 06:54:55;;;;;;;7.40;5.30;;;13.90;99.90;;;;;;4920904;29;20193;-78
2022/08/27 06:57:36;;;;;;;5.88;5.00;;;14.00;99.90;;;;;;4920846;29;20048;-78
2022/08/27 07:00:05;;;;;;;5.97;4.43;;;14.10;99.90;;;;;;4900701;29;20528;-78
2022/08/27 07:02:31;;;;;;;3.97;3.58;;;14.30;99.90;;;;;;4917100;29;20051;-77
2022/08/27 07:05:24;;;;;;;4.50;3.58;;;14.50;99.90;;;;;;4912288;29;20039;-78
2022/08/27 07:08:17;;;;;;;5.93;3.15;;;14.60;99.90;;;;;;4906062;29;20131;-78
2022/08/27 07:11:16;;;;;;;3.30;2.50;;;14.80;99.90;;;;;;4927833;29;20047;-79
2022/08/27 07:17:48;;;;;;;2.88;2.35;;;15.20;99.90;;;;;;4894914;29;20047;-79
2022/08/27 07:20:19;;;;;;;3.00;2.70;;;15.40;99.90;;;;;;4910020;29;20043;-79
2022/08/27 07:22:58;;;;;;;4.13;1.83;;;15.60;99.90;;;;;;4911676;29;20421;-78
2022/08/27 07:25:27;;;;;;;3.05;2.10;;;15.80;99.90;;;;;;4911127;29;20051;-79
2022/08/27 07:28:00;;;;;;;3.45;2.10;;;16.10;99.90;;;;;;4931702;29;20111;-80
2022/08/27 07:30:30;;;;;;;2.92;1.50;;;16.30;99.90;;;;;;4911061;29;20532;-79
2022/08/27 07:33:13;;;;;;;2.78;1.70;;;16.60;99.90;;;;;;4914549;29;20100;-78
2022/08/27 07:35:53;;;;;;;2.42;1.45;;;16.90;99.90;;;;;;4930600;29;20036;-78
2022/08/27 07:38:30;;;;;;;2.72;1.70;;;17.10;99.90;;;;;;4927624;29;20065;-78
2022/08/27 07:41:03;;;;;;;1.85;1.23;;;17.40;99.90;;;;;;4930752;29;20035;-78
2022/08/27 07:46:30;;;;;;;;;;;17.70;99.90;;;;;;4939637;29;20080;-78
2022/08/27 07:49:34;;;;;;;1.48;1.17;;;17.60;99.90;;;;;;4925418;29;19919;-78
2022/08/27 07:52:11;;;;;;;1.67;1.20;;;17.60;99.90;;;;;;4925408;29;20122;-78
2022/08/27 07:55:11;;;;;;;1.77;1.23;;;17.60;99.90;;;;;;4910852;29;20062;-78
2022/08/27 07:57:41;;;;;;;2.15;1.10;;;17.60;99.90;;;;;;4920221;29;20040;-78
2022/08/27 08:00:44;;;;;;;1.85;1.10;;;17.60;99.90;;;;;;4936427;29;20063;-78
2022/08/27 08:03:22;;;;;;;1.95;1.25;;;17.70;99.90;;;;;;4924464;29;20055;-79
2022/08/27 08:06:06;;;;;;;2.65;1.30;;;17.70;99.90;;;;;;4934903;29;20577;-77
2022/08/27 08:08:39;;;;;;;3.88;1.27;;;17.90;99.90;;;;;;4929021;29;20086;-80
2022/08/27 08:11:10;;;;;;;2.28;1.20;;;17.90;99.90;;;;;;4924451;29;20067;-79
2022/08/27 08:13:43;;;;;;;2.45;1.10;;;18.10;99.90;;;;;;4913099;29;20122;-78
2022/08/27 08:16:25;;;;;;;1.95;1.25;;;18.20;99.90;;;;;;4911335;29;20074;-78
2022/08/27 08:19:10;;;;;;;1.35;1.10;;;18.30;99.90;;;;;;4918556;29;20452;-77
2022/08/27 08:21:44;;;;;;;2.53;0.82;;;18.50;99.90;;;;;;4939827;29;20076;-77
2022/08/27 08:24:13;;;;;;;1.80;0.90;;;18.80;99.90;;;;;;4926109;29;20404;-78
2022/08/27 08:26:43;;;;;;;3.03;1.08;;;19.00;99.90;;;;;;4912463;29;20032;-77
2022/08/27 08:29:14;;;;;;;2.25;1.02;;;19.10;99.90;;;;;;4937231;29;20047;-78
2022/08/27 08:31:50;;;;;;;1.35;1.00;;;19.30;99.90;;;;;;4930978;29;20048;-76
2022/08/27 08:34:27;;;;;;;2.00;0.73;;;19.70;99.90;;;;;;4944304;29;20035;-78
2022/08/27 08:36:59;;;;;;;2.35;0.80;;;20.30;99.90;;;;;;4916960;29;20046;-76
2022/08/27 08:39:34;;;;;;;1.07;0.60;;;20.60;99.90;;;;;;4902931;29;20456;-78
2022/08/27 08:42:41;;;;;;;1.65;0.80;;;20.80;99.90;;;;;;4932040;29;20047;-78
2022/08/27 08:45:13;;;;;;;1.15;0.50;;;20.90;99.90;;;;;;4923508;29;20472;-77
2022/08/27 08:47:57;;;;;;;2.35;0.85;;;20.80;99.90;;;;;;4928128;29;20040;-76
2022/08/27 08:50:27;;;;;;;;;;;20.50;99.90;;;;;;4933181;29;20044;-77
2022/08/27 08:52:59;;;;;;;2.42;0.85;;;20.20;99.90;;;;;;4930650;29;19941;-78
2022/08/27 08:55:33;;;;;;;1.90;0.77;;;20.00;99.90;;;;;;4919267;29;20035;-78
2022/08/27 08:58:08;;;;;;;3.13;0.85;;;19.80;99.90;;;;;;4923707;29;20039;-78
2022/08/27 09:00:44;;;;;;;5.30;0.90;;;19.80;99.90;;;;;;4905938;29;20051;-77
2022/08/27 09:03:17;;;;;;;4.85;1.10;;;19.80;99.90;;;;;;4904995;29;20055;-77
2022/08/27 09:05:56;;;;;;;1.45;0.80;;;19.90;99.90;;;;;;4915946;29;20079;-77
2022/08/27 09:09:27;;;;;;;;;;;;;;;;;;;;;
2022/08/27 09:12:46;;;;;;;2.53;0.65;;;21.60;99.40;;;;;;4935590;29;20118;-80
2022/08/27 09:18:43;;;;;;;1.70;0.70;;;22.90;93.40;;;;;;4873649;29;20052;-78
2022/08/27 09:21:50;;;;;;;1.90;0.70;;;22.90;86.00;;;;;;4919055;29;20063;-77
2022/08/27 09:24:17;;;;;;;3.25;0.80;;;22.90;87.00;;;;;;4904241;29;20138;-77
2022/08/27 09:26:48;;;;;;;1.55;0.90;;;22.60;90.40;;;;;;4913751;29;20421;-79
2022/08/27 09:29:21;;;;;;;2.35;0.88;;;22.30;88.60;;;;;;4933313;29;20044;-79
2022/08/27 09:32:22;;;;;;;3.58;1.02;;;22.10;90.20;;;;;;4917824;29;20079;-78
2022/08/27 09:35:15;;;;;;;1.38;0.65;;;22.30;86.00;;;;;;4909381;29;20075;-81
2022/08/27 09:37:46;;;;;;;1.93;0.53;;;23.20;88.80;;;;;;4893211;29;20073;-78
2022/08/27 09:40:33;;;;;;;1.48;0.52;;;23.60;87.50;;;;;;4908362;29;20142;-80
2022/08/27 09:43:15;;;;;;;1.45;0.40;;;24.30;80.10;;;;;;4906065;29;20373;-78
2022/08/27 09:45:56;;;;;;;2.25;0.70;;;25.10;74.90;;;;;;4928721;29;20047;-79
2022/08/27 09:48:34;;;;;;;2.25;0.50;;;25.50;77.50;;;;;;4921884;29;21510;-79
2022/08/27 09:51:11;;;;;;;1.60;0.60;;;25.10;75.60;;;;;;4911570;29;20077;-78
2022/08/27 09:54:02;;;;;;;3.60;0.70;;;24.30;76.90;;;;;;4908485;29;20043;-78
2022/08/27 09:56:49;;;;;;;2.70;0.70;;;23.50;77.20;;;;;;4915370;29;20044;-79
2022/08/27 09:59:32;;;;;;;2.45;0.82;;;22.90;81.10;;;;;;4935709;29;20506;-79
2022/08/27 10:02:32;;;;;;;1.45;0.70;;;22.40;79.50;;;;;;4919016;29;20043;-78
2022/08/27 10:05:13;;;;;;;1.48;0.75;;;21.80;79.80;;;;;;4930832;29;20070;-78
2022/08/27 10:07:55;;;;;;;1.67;0.70;;;21.30;82.40;;;;;;4921469;29;20058;-78
2022/08/27 10:10:47;;;;;;;1.90;0.88;;;21.00;83.90;;;;;;4913556;29;20047;-77
2022/08/27 10:13:39;;;;;;;0.93;0.60;;;20.70;83.90;;;;;;4900891;29;20071;-78
2022/08/27 10:16:32;;;;;;;1.63;0.50;;;20.60;85.50;;;;;;4934722;29;20056;-78
2022/08/27 10:19:17;;;;;;;2.33;0.75;;;20.50;84.50;;;;;;4930145;28;20047;-77
2022/08/27 10:22:19;;;;;;;1.83;0.52;;;20.40;85.40;;;;;;4929940;29;20058;-78
2022/08/27 10:25:26;;;;;;;1.90;0.63;;;20.30;84.40;;;;;;4922220;29;20104;-78
2022/08/27 10:28:16;;;;;;;1.55;0.65;;;20.30;83.10;;;;;;4902967;29;20046;-78
2022/08/27 10:31:11;;;;;;;2.38;0.60;;;20.20;86.00;;;;;;4919226;29;20040;-78
2022/08/27 10:34:24;;;;;;;2.03;0.63;;;20.20;84.20;;;;;;4919487;29;20032;-78
2022/08/27 10:37:25;;;;;;;3.65;0.63;;;20.20;84.50;;;;;;4916355;29;20664;-78
2022/08/27 10:40:17;;;;;;;1.38;0.60;;;20.20;87.20;;;;;;4912835;29;20039;-77
2022/08/27 10:42:53;;;;;;;2.38;0.60;;;20.40;87.50;;;;;;4935291;29;20559;-78
2022/08/27 10:45:52;;;;;;;1.58;0.60;;;20.50;86.70;;;;;;4947805;29;20067;-78
2022/08/27 10:48:34;;;;;;;1.00;0.70;;;20.60;88.10;;;;;;4926109;29;20046;-78
2022/08/27 10:51:31;;;;;;;1.63;0.70;;;20.70;88.20;;;;;;4903811;29;20047;-79
2022/08/27 10:54:32;;;;;;;2.33;0.90;;;20.90;86.70;;;;;;4906472;29;20090;-79
2022/08/27 10:57:21;;;;;;;1.55;0.65;;;21.00;87.80;;;;;;4912781;29;20110;-80
2022/08/27 11:00:29;;;;;;;2.05;0.70;;;21.20;87.90;;;;;;4936681;29;20196;-80
2022/08/27 11:03:30;;;;;;;1.58;0.73;;;21.30;85.70;;;;;;4890053;29;20055;-82
2022/08/27 11:06:36;;;;;;;2.05;0.60;;;21.40;84.80;;;;;;4940444;29;20047;-80
2022/08/27 11:09:19;;;;;;;1.80;0.65;;;21.40;82.90;;;;;;4920913;29;20070;-78
2022/08/27 11:11:50;;;;;;;2.17;0.95;;;21.40;83.60;;;;;;4921676;29;20884;-78
2022/08/27 11:14:30;;;;;;;1.83;0.70;;;21.50;84.50;;;;;;4930489;29;20069;-78
2022/08/27 11:17:10;;;;;;;2.20;0.70;;;21.60;81.50;;;;;;4922239;29;20039;-78
2022/08/27 11:20:18;;;;;;;1.15;0.60;;;21.70;83.90;;;;;;4929038;29;20043;-79
2022/08/27 11:22:55;;;;;;;1.40;0.60;;;21.80;80.00;;;;;;4908708;29;20098;-79
2022/08/27 11:25:21;;;;;;;1.45;0.52;;;21.80;78.80;;;;;;4934063;29;20047;-78
2022/08/27 11:27:56;;;;;;;1.08;0.47;;;21.80;79.00;;;;;;4930347;29;20050;-79
2022/08/27 11:30:28;;;;;;;1.13;0.50;;;21.90;79.40;;;;;;4941097;29;20475;-77
2022/08/27 11:33:22;;;;;;;2.15;0.52;;;21.90;79.80;;;;;;4931668;29;20070;-78
2022/08/27 11:36:16;;;;;;;0.95;0.57;;;22.10;79.70;;;;;;4909021;29;20408;-77
2022/08/27 11:39:10;;;;;;;0.75;0.40;;;22.20;79.10;;;;;;4919899;29;20039;-77
2022/08/27 11:41:54;;;;;;;1.70;0.70;;;22.20;76.90;;;;;;4937181;29;20040;-78
2022/08/27 11:44:24;;;;;;;0.75;0.50;;;22.30;79.40;;;;;;4920521;29;20107;-79
2022/08/27 11:47:13;;;;;;;1.55;0.60;;;22.30;78.80;;;;;;4924458;29;20051;-78
2022/08/27 11:49:50;;;;;;;2.95;0.70;;;22.50;76.30;;;;;;4916895;29;20043;-79
2022/08/27 11:52:27;;;;;;;1.85;0.77;;;22.70;78.10;;;;;;4941195;29;20043;-80
2022/08/27 11:55:13;;;;;;;0.77;0.55;;;23.30;80.00;;;;;;4929096;29;20031;-78
2022/08/27 11:57:43;;;;;;;1.83;0.63;;;23.60;76.10;;;;;;4929092;29;20047;-79
2022/08/27 12:00:27;;;;;;;1.33;0.50;;;23.70;77.20;;;;;;4930527;29;20522;-79
2022/08/27 12:03:08;;;;;;;1.77;0.50;;;23.50;75.40;;;;;;4905159;29;20077;-80
2022/08/27 12:05:54;;;;;;;1.33;0.50;;;23.20;76.30;;;;;;4934363;28;20050;-80
2022/08/27 12:08:21;;;;;;;1.58;0.65;;;23.10;77.40;;;;;;4928465;29;20416;-79
2022/08/27 12:11:26;;;;;;;1.05;0.50;;;23.00;77.80;;;;;;4929796;29;20514;-79
2022/08/27 12:14:11;;;;;;;2.72;0.93;;;23.20;78.60;;;;;;4932309;29;20043;-79
2022/08/27 12:17:00;;;;;;;1.92;0.65;;;23.30;78.50;;;;;;4924234;29;20039;-79
2022/08/27 12:19:43;;;;;;;2.00;1.00;;;23.30;76.80;;;;;;4921927;29;20130;-78
2022/08/27 12:22:31;;;;;;;2.72;0.70;;;23.10;74.10;;;;;;4931115;29;20056;-78
2022/08/27 12:25:02;;;;;;;1.58;0.50;;;22.80;76.10;;;;;;4922573;29;20056;-78
2022/08/27 12:27:33;;;;;;;2.83;0.68;;;22.60;76.70;;;;;;4907345;29;20050;-78
2022/08/27 12:30:21;;;;;;;1.48;0.50;;;22.50;77.40;;;;;;4926297;29;20035;-78
2022/08/27 12:32:53;;;;;;;1.00;0.70;;;22.40;75.60;;;;;;4938197;29;20086;-78
2022/08/27 12:35:29;;;;;;;1.30;0.50;;;22.50;76.70;;;;;;4915581;29;20035;-76
2022/08/27 12:38:18;;;;;;;2.38;0.70;;;22.60;76.80;;;;;;4910323;29;20038;-76
2022/08/27 12:40:56;;;;;;;0.93;0.60;;;22.70;76.70;;;;;;4936888;29;20505;-75
2022/08/27 12:43:28;;;;;;;1.60;0.50;;;22.90;77.40;;;;;;4912328;29;20054;-77
2022/08/27 12:46:04;;;;;;;1.80;0.75;;;23.10;76.40;;;;;;4931249;29;20043;-76
2022/08/27 12:48:45;;;;;;;2.58;0.60;;;23.30;76.80;;;;;;4929969;29;20074;-76
2022/08/27 12:51:30;;;;;;;1.85;0.68;;;23.50;77.00;;;;;;4950094;29;20488;-76
2022/08/27 12:54:11;;;;;;;2.35;0.60;;;23.60;76.70;;;;;;4925195;29;20519;-76
2022/08/27 12:56:39;;;;;;;2.50;0.63;;;23.80;76.70;;;;;;4916438;29;20056;-76
2022/08/27 12:59:35;;;;;;;2.90;0.70;;;23.80;74.60;;;;;;4916228;29;20382;-76
2022/08/27 13:02:08;;;;;;;;;;;23.60;73.80;;;;;;4916035;29;20036;-76
2022/08/27 13:04:40;;;;;;;2.33;0.80;;;23.50;73.20;;;;;;4935189;29;19926;-76
2022/08/27 13:07:12;;;;;;;1.30;0.60;;;23.60;74.90;;;;;;4918894;29;20051;-76
2022/08/27 13:09:38;;;;;;;1.63;0.50;;;23.70;73.20;;;;;;4933693;29;20618;-77
2022/08/27 13:12:18;;;;;;;1.40;0.60;;;23.70;72.40;;;;;;4919073;29;20032;-77
2022/08/27 13:14:50;;;;;;;1.35;0.50;;;23.70;71.40;;;;;;4919409;29;20044;-77
2022/08/27 13:17:19;;;;;;;1.65;0.63;;;23.70;70.80;;;;;;4903481;29;20400;-76
2022/08/27 13:20:04;;;;;;;2.97;0.90;;;23.90;70.20;;;;;;4918873;29;20111;-77
2022/08/27 13:22:42;;;;;;;1.48;0.55;;;23.90;70.10;;;;;;4916443;29;20130;-77
2022/08/27 13:25:24;;;;;;;1.77;0.50;;;23.80;68.70;;;;;;4918595;29;20475;-77
2022/08/27 13:27:54;;;;;;;1.35;0.47;;;23.60;69.20;;;;;;4920030;29;20134;-77
2022/08/27 13:30:23;;;;;;;1.95;0.60;;;23.50;69.50;;;;;;4918799;29;20075;-77
2022/08/27 13:32:50;;;;;;;2.03;0.60;;;23.40;70.10;;;;;;4903060;29;20131;-77
2022/08/27 13:35:17;;;;;;;1.00;0.50;;;23.30;69.90;;;;;;4919134;29;20052;-76
2022/08/27 13:37:52;;;;;;;1.25;0.50;;;23.20;70.20;;;;;;4917588;29;20055;-77
2022/08/27 13:40:29;;;;;;;1.45;0.50;;;23.10;70.70;;;;;;4918982;29;20048;-76
2022/08/27 13:43:08;;;;;;;1.15;0.47;;;23.20;71.20;;;;;;4918896;29;20075;-77
2022/08/27 13:45:41;;;;;;;3.00;0.75;;;23.70;70.20;;;;;;4918608;29;20083;-76
2022/08/27 13:48:09;;;;;;;2.75;0.73;;;23.80;68.20;;;;;;4916244;29;20044;-77
2022/08/27 13:50:45;;;;;;;1.17;0.40;;;23.60;67.80;;;;;;4921261;29;20051;-76
2022/08/27 13:56:02;;;;;;;0.88;0.40;;;23.30;68.90;;;;;;4934313;29;20047;-77
2022/08/27 13:58:31;;;;;;;2.10;0.57;;;23.10;69.30;;;;;;4918479;29;20690;-76
2022/08/27 14:01:29;;;;;;;1.70;0.50;;;22.80;69.90;;;;;;4917371;29;20043;-76
2022/08/27 14:04:06;;;;;;;1.00;0.50;;;22.70;70.00;;;;;;4903950;29;20365;-77
2022/08/27 14:06:43;;;;;;;0.98;0.50;;;22.70;71.60;;;;;;4883620;29;20040;-76
2022/08/27 14:09:29;;;;;;;2.03;0.47;;;23.00;71.50;;;;;;4902342;29;20120;-76
2022/08/27 14:12:04;;;;;;;1.30;0.60;;;23.60;71.80;;;;;;4918149;29;20134;-76
2022/08/27 14:14:35;;;;;;;0.50;0.40;;;24.30;71.50;;;;;;4918230;29;20102;-76
2022/08/27 14:17:07;;;;;;;2.10;0.52;;;25.00;69.10;;;;;;4917897;29;20040;-77
2022/08/27 14:19:36;;;;;;;1.10;0.30;;;24.80;65.80;;;;;;4918160;29;20500;-76
2022/08/27 14:22:04;;;;;;;0.95;0.40;;;24.50;67.60;;;;;;4901987;29;20142;-76
2022/08/27 14:24:30;;;;;;;1.45;0.52;;;24.40;69.60;;;;;;4901752;29;20051;-76
2022/08/27 14:27:07;;;;;;;1.83;0.57;;;24.70;70.60;;;;;;4904271;29;20043;-76
2022/08/27 14:29:32;;;;;;;0.98;0.40;;;25.10;69.40;;;;;;4918088;29;20065;-76
2022/08/27 14:31:58;;;;;;;1.52;0.50;;;25.30;68.50;;;;;;4902372;29;20049;-77
2022/08/27 14:34:34;;;;;;;1.70;0.77;;;25.40;67.70;;;;;;4902157;29;20468;-77
2022/08/27 14:37:02;;;;;;;1.90;0.65;;;25.20;67.70;;;;;;4933263;29;20521;-76
2022/08/27 14:39:30;;;;;;;0.82;0.40;;;24.90;66.60;;;;;;4933786;29;20043;-77
2022/08/27 14:41:57;;;;;;;0.73;0.32;;;24.50;66.70;;;;;;4917567;29;20512;-77
2022/08/27 14:44:22;;;;;;;1.17;0.38;;;24.20;66.90;;;;;;4901028;29;20044;-77
2022/08/27 14:46:52;;;;;;;1.17;0.47;;;23.90;67.00;;;;;;4901684;29;20082;-76
2022/08/27 14:49:33;;;;;;;2.35;0.47;;;23.70;67.70;;;;;;4916761;29;20036;-76
2022/08/27 14:52:03;;;;;;;2.55;0.60;;;23.40;67.30;;;;;;4909068;29;20035;-76
2022/08/27 14:54:28;;;;;;;0.88;0.50;;;23.30;69.10;;;;;;4917854;29;20071;-76
2022/08/27 14:56:57;;;;;;;1.20;0.30;;;23.20;69.60;;;;;;4916155;29;20493;-76
2022/08/27 14:59:24;;;;;;;1.67;0.40;;;23.20;69.50;;;;;;4931983;29;20400;-76
2022/08/27 15:01:51;;;;;;;1.33;0.40;;;23.30;69.40;;;;;;4898414;29;20416;-76